sensor_id;sensor_type;location;lat;lon;timestamp;P1;durP1;ratioP1;P2;durP2;ratioP2
73599;SDS011;61877;48.246;9.220;2023-01-19T00:00:23;18.42;;;10.00;;
73599;SDS011;61877;48.246;9.220;2023-01-19T00:02:49;18.60;;;10.18;;
73599;SDS011;61877;48.246;9.220;2023-01-19T00:05:14;20.42;;;9.18;;
73599;SDS011;61877;48.246;9.220;2023-01-19T00:07:40;17.77;;;9.53;;
73599;SDS011;61877;48.246;9.220;2023-01-19T00:10:09;19.15;;;9.15;;
73599;SDS011;61877;48.246;9.220;2023-01-19T00:12:36;18.87;;;8.40;;
73599;SDS011;61877;48.246;9.220;2023-01-19T00:15:02;16.85;;;8.43;;
73599;SDS011;61877;48.246;9.220;2023-01-19T00:17:29;14.57;;;7.68;;
73599;SDS011;61877;48.246;9.220;2023-01-19T00:19:55;16.63;;;7.77;;
73599;SDS011;61877;48.246;9.220;2023-01-19T00:22:20;15.90;;;8.07;;
73599;SDS011;61877;48.246;9.220;2023-01-19T00:24:47;16.70;;;8.50;;
73599;SDS011;61877;48.246;9.220;2023-01-19T00:27:15;17.80;;;8.55;;
73599;SDS011;61877;48.246;9.220;2023-01-19T00:29:41;16.40;;;7.30;;
73599;SDS011;61877;48.246;9.220;2023-01-19T00:32:06;19.13;;;9.30;;
73599;SDS011;61877;48.246;9.220;2023-01-19T00:34:32;22.50;;;10.90;;
73599;SDS011;61877;48.246;9.220;2023-01-19T00:36:57;21.70;;;10.02;;
73599;SDS011;61877;48.246;9.220;2023-01-19T00:39:23;17.63;;;8.77;;
73599;SDS011;61877;48.246;9.220;2023-01-19T00:41:49;17.05;;;8.57;;
73599;SDS011;61877;48.246;9.220;2023-01-19T00:44:16;16.67;;;8.47;;
73599;SDS011;61877;48.246;9.220;2023-01-19T00:46:41;20.10;;;9.00;;
73599;SDS011;61877;48.246;9.220;2023-01-19T00:49:07;18.77;;;8.63;;
73599;SDS011;61877;48.246;9.220;2023-01-19T00:51:32;17.63;;;8.90;;
73599;SDS011;61877;48.246;9.220;2023-01-19T00:53:59;20.97;;;9.67;;
73599;SDS011;61877;48.246;9.220;2023-01-19T00:56:26;21.70;;;10.50;;
73599;SDS011;61877;48.246;9.220;2023-01-19T00:58:54;17.83;;;9.80;;
73599;SDS011;61877;48.246;9.220;2023-01-19T01:01:30;21.20;;;9.77;;
73599;SDS011;61877;48.246;9.220;2023-01-19T01:03:56;22.95;;;11.38;;
73599;SDS011;61877;48.246;9.220;2023-01-19T01:06:21;20.93;;;11.00;;
73599;SDS011;61877;48.246;9.220;2023-01-19T01:08:48;22.63;;;10.60;;
73599;SDS011;61877;48.246;9.220;2023-01-19T01:11:14;22.52;;;10.27;;
73599;SDS011;61877;48.246;9.220;2023-01-19T01:13:40;22.53;;;11.43;;
73599;SDS011;61877;48.246;9.220;2023-01-19T01:16:06;22.27;;;12.00;;
73599;SDS011;61877;48.246;9.220;2023-01-19T01:18:36;23.48;;;11.68;;
73599;SDS011;61877;48.246;9.220;2023-01-19T01:21:01;23.23;;;11.25;;
73599;SDS011;61877;48.246;9.220;2023-01-19T01:23:30;23.77;;;11.25;;
73599;SDS011;61877;48.246;9.220;2023-01-19T01:25:56;19.73;;;10.47;;
73599;SDS011;61877;48.246;9.220;2023-01-19T01:28:22;21.38;;;9.63;;
73599;SDS011;61877;48.246;9.220;2023-01-19T01:30:48;16.00;;;8.53;;
73599;SDS011;61877;48.246;9.220;2023-01-19T01:33:17;17.13;;;8.57;;
73599;SDS011;61877;48.246;9.220;2023-01-19T01:35:45;16.80;;;8.70;;
73599;SDS011;61877;48.246;9.220;2023-01-19T01:38:12;15.97;;;8.07;;
73599;SDS011;61877;48.246;9.220;2023-01-19T01:40:38;15.82;;;8.65;;
73599;SDS011;61877;48.246;9.220;2023-01-19T01:43:05;14.43;;;7.87;;
73599;SDS011;61877;48.246;9.220;2023-01-19T01:45:36;13.73;;;6.97;;
73599;SDS011;61877;48.246;9.220;2023-01-19T01:48:04;17.33;;;8.60;;
73599;SDS011;61877;48.246;9.220;2023-01-19T01:50:36;23.75;;;10.27;;
73599;SDS011;61877;48.246;9.220;2023-01-19T01:53:07;20.08;;;9.95;;
73599;SDS011;61877;48.246;9.220;2023-01-19T01:55:40;21.17;;;9.80;;
73599;SDS011;61877;48.246;9.220;2023-01-19T01:58:10;21.20;;;10.52;;
73599;SDS011;61877;48.246;9.220;2023-01-19T02:00:38;22.80;;;10.48;;
73599;SDS011;61877;48.246;9.220;2023-01-19T02:03:04;21.20;;;10.85;;
73599;SDS011;61877;48.246;9.220;2023-01-19T02:05:31;20.47;;;10.00;;
73599;SDS011;61877;48.246;9.220;2023-01-19T02:08:00;23.77;;;11.15;;
73599;SDS011;61877;48.246;9.220;2023-01-19T02:10:31;21.35;;;10.32;;
73599;SDS011;61877;48.246;9.220;2023-01-19T02:12:57;16.52;;;9.50;;
73599;SDS011;61877;48.246;9.220;2023-01-19T02:15:26;18.13;;;9.13;;
73599;SDS011;61877;48.246;9.220;2023-01-19T02:17:51;16.53;;;8.73;;
73599;SDS011;61877;48.246;9.220;2023-01-19T02:20:17;17.03;;;9.33;;
73599;SDS011;61877;48.246;9.220;2023-01-19T02:22:47;15.15;;;8.48;;
73599;SDS011;61877;48.246;9.220;2023-01-19T02:25:20;17.33;;;9.13;;
73599;SDS011;61877;48.246;9.220;2023-01-19T02:27:47;16.23;;;8.20;;
73599;SDS011;61877;48.246;9.220;2023-01-19T02:30:15;16.00;;;8.63;;
73599;SDS011;61877;48.246;9.220;2023-01-19T02:32:41;20.63;;;10.30;;
73599;SDS011;61877;48.246;9.220;2023-01-19T02:35:09;19.20;;;10.00;;
73599;SDS011;61877;48.246;9.220;2023-01-19T02:37:36;19.50;;;10.70;;
73599;SDS011;61877;48.246;9.220;2023-01-19T02:40:08;23.70;;;11.02;;
73599;SDS011;61877;48.246;9.220;2023-01-19T02:42:38;22.42;;;10.25;;
73599;SDS011;61877;48.246;9.220;2023-01-19T02:45:08;17.90;;;8.80;;
73599;SDS011;61877;48.246;9.220;2023-01-19T02:47:36;20.13;;;10.18;;
73599;SDS011;61877;48.246;9.220;2023-01-19T02:50:03;18.40;;;9.27;;
73599;SDS011;61877;48.246;9.220;2023-01-19T02:52:50;16.08;;;8.60;;
73599;SDS011;61877;48.246;9.220;2023-01-19T02:55:20;15.35;;;8.95;;
73599;SDS011;61877;48.246;9.220;2023-01-19T02:57:54;17.17;;;8.75;;
73599;SDS011;61877;48.246;9.220;2023-01-19T03:00:29;17.20;;;8.77;;
73599;SDS011;61877;48.246;9.220;2023-01-19T03:03:06;15.37;;;8.23;;
73599;SDS011;61877;48.246;9.220;2023-01-19T03:05:48;14.25;;;8.07;;
73599;SDS011;61877;48.246;9.220;2023-01-19T03:08:23;16.38;;;9.07;;
73599;SDS011;61877;48.246;9.220;2023-01-19T03:22:38;17.02;;;9.05;;
73599;SDS011;61877;48.246;9.220;2023-01-19T03:30:59;19.30;;;9.32;;
73599;SDS011;61877;48.246;9.220;2023-01-19T03:39:10;16.55;;;8.75;;
73599;SDS011;61877;48.246;9.220;2023-01-19T03:41:41;14.73;;;8.47;;
73599;SDS011;61877;48.246;9.220;2023-01-19T03:44:19;14.43;;;8.70;;
73599;SDS011;61877;48.246;9.220;2023-01-19T03:46:49;15.80;;;8.77;;
73599;SDS011;61877;48.246;9.220;2023-01-19T03:49:23;15.93;;;8.75;;
73599;SDS011;61877;48.246;9.220;2023-01-19T03:51:49;15.38;;;9.05;;
73599;SDS011;61877;48.246;9.220;2023-01-19T03:54:14;14.43;;;7.57;;
73599;SDS011;61877;48.246;9.220;2023-01-19T03:56:40;15.20;;;8.40;;
73599;SDS011;61877;48.246;9.220;2023-01-19T03:59:23;14.95;;;8.20;;
73599;SDS011;61877;48.246;9.220;2023-01-19T04:02:21;15.27;;;8.37;;
73599;SDS011;61877;48.246;9.220;2023-01-19T04:13:53;19.08;;;9.65;;
73599;SDS011;61877;48.246;9.220;2023-01-19T04:16:39;18.13;;;9.37;;
73599;SDS011;61877;48.246;9.220;2023-01-19T04:22:11;15.10;;;7.80;;
73599;SDS011;61877;48.246;9.220;2023-01-19T04:25:06;18.92;;;7.95;;
73599;SDS011;61877;48.246;9.220;2023-01-19T04:27:52;16.40;;;8.90;;
73599;SDS011;61877;48.246;9.220;2023-01-19T04:31:07;17.97;;;10.27;;
73599;SDS011;61877;48.246;9.220;2023-01-19T04:33:58;19.00;;;9.32;;
73599;SDS011;61877;48.246;9.220;2023-01-19T04:36:24;16.00;;;8.77;;
73599;SDS011;61877;48.246;9.220;2023-01-19T04:38:49;14.03;;;8.87;;
73599;SDS011;61877;48.246;9.220;2023-01-19T04:41:15;15.65;;;8.77;;
73599;SDS011;61877;48.246;9.220;2023-01-19T04:43:43;15.57;;;8.43;;
73599;SDS011;61877;48.246;9.220;2023-01-19T04:46:09;17.48;;;8.82;;
73599;SDS011;61877;48.246;9.220;2023-01-19T04:48:35;16.67;;;8.87;;
73599;SDS011;61877;48.246;9.220;2023-01-19T04:51:01;14.33;;;7.97;;
73599;SDS011;61877;48.246;9.220;2023-01-19T04:53:28;19.75;;;9.00;;
73599;SDS011;61877;48.246;9.220;2023-01-19T04:55:53;17.02;;;8.88;;
73599;SDS011;61877;48.246;9.220;2023-01-19T04:58:19;17.10;;;8.77;;
73599;SDS011;61877;48.246;9.220;2023-01-19T05:00:47;15.43;;;8.68;;
73599;SDS011;61877;48.246;9.220;2023-01-19T05:03:13;17.63;;;9.57;;
73599;SDS011;61877;48.246;9.220;2023-01-19T05:05:39;19.40;;;10.07;;
73599;SDS011;61877;48.246;9.220;2023-01-19T05:08:04;17.97;;;9.40;;
73599;SDS011;61877;48.246;9.220;2023-01-19T05:10:30;16.80;;;9.10;;
73599;SDS011;61877;48.246;9.220;2023-01-19T05:12:58;15.73;;;8.00;;
73599;SDS011;61877;48.246;9.220;2023-01-19T05:15:26;20.02;;;8.88;;
73599;SDS011;61877;48.246;9.220;2023-01-19T05:17:54;17.53;;;9.33;;
73599;SDS011;61877;48.246;9.220;2023-01-19T05:20:19;23.80;;;10.45;;
73599;SDS011;61877;48.246;9.220;2023-01-19T05:22:48;20.77;;;10.60;;
73599;SDS011;61877;48.246;9.220;2023-01-19T05:25:13;20.00;;;10.75;;
73599;SDS011;61877;48.246;9.220;2023-01-19T05:27:39;20.80;;;9.67;;
73599;SDS011;61877;48.246;9.220;2023-01-19T05:30:05;17.48;;;8.52;;
73599;SDS011;61877;48.246;9.220;2023-01-19T05:32:31;16.20;;;9.25;;
73599;SDS011;61877;48.246;9.220;2023-01-19T05:35:00;20.63;;;10.50;;
73599;SDS011;61877;48.246;9.220;2023-01-19T05:37:28;22.90;;;11.13;;
73599;SDS011;61877;48.246;9.220;2023-01-19T05:39:55;17.65;;;10.23;;
73599;SDS011;61877;48.246;9.220;2023-01-19T05:42:20;18.40;;;9.00;;
73599;SDS011;61877;48.246;9.220;2023-01-19T05:44:48;17.13;;;8.43;;
73599;SDS011;61877;48.246;9.220;2023-01-19T05:47:15;19.45;;;8.10;;
73599;SDS011;61877;48.246;9.220;2023-01-19T05:49:41;16.52;;;8.40;;
73599;SDS011;61877;48.246;9.220;2023-01-19T05:52:07;16.10;;;8.87;;
73599;SDS011;61877;48.246;9.220;2023-01-19T05:54:33;16.85;;;9.00;;
73599;SDS011;61877;48.246;9.220;2023-01-19T05:56:58;16.67;;;9.13;;
73599;SDS011;61877;48.246;9.220;2023-01-19T05:59:24;18.70;;;9.13;;
73599;SDS011;61877;48.246;9.220;2023-01-19T06:01:49;17.40;;;9.17;;
73599;SDS011;61877;48.246;9.220;2023-01-19T06:04:15;18.45;;;9.30;;
73599;SDS011;61877;48.246;9.220;2023-01-19T06:06:42;18.60;;;9.40;;
73599;SDS011;61877;48.246;9.220;2023-01-19T06:09:09;20.98;;;9.38;;
73599;SDS011;61877;48.246;9.220;2023-01-19T06:11:35;22.05;;;10.40;;
73599;SDS011;61877;48.246;9.220;2023-01-19T06:14:00;19.13;;;9.70;;
73599;SDS011;61877;48.246;9.220;2023-01-19T06:16:27;17.77;;;9.65;;
73599;SDS011;61877;48.246;9.220;2023-01-19T06:18:52;19.17;;;9.80;;
73599;SDS011;61877;48.246;9.220;2023-01-19T06:21:20;19.58;;;9.50;;
73599;SDS011;61877;48.246;9.220;2023-01-19T06:23:46;17.95;;;9.60;;
73599;SDS011;61877;48.246;9.220;2023-01-19T06:26:15;20.42;;;10.18;;
73599;SDS011;61877;48.246;9.220;2023-01-19T06:28:40;19.40;;;9.57;;
73599;SDS011;61877;48.246;9.220;2023-01-19T06:31:06;20.60;;;9.85;;
73599;SDS011;61877;48.246;9.220;2023-01-19T06:33:32;19.20;;;9.87;;
73599;SDS011;61877;48.246;9.220;2023-01-19T06:35:58;24.92;;;11.75;;
73599;SDS011;61877;48.246;9.220;2023-01-19T06:38:24;21.20;;;11.03;;
73599;SDS011;61877;48.246;9.220;2023-01-19T06:40:54;21.88;;;10.63;;
73599;SDS011;61877;48.246;9.220;2023-01-19T06:43:25;20.55;;;10.48;;
73599;SDS011;61877;48.246;9.220;2023-01-19T06:45:50;27.70;;;11.17;;
73599;SDS011;61877;48.246;9.220;2023-01-19T06:48:17;19.88;;;10.90;;
73599;SDS011;61877;48.246;9.220;2023-01-19T06:50:47;18.20;;;9.77;;
73599;SDS011;61877;48.246;9.220;2023-01-19T06:53:13;23.25;;;10.70;;
73599;SDS011;61877;48.246;9.220;2023-01-19T06:55:40;20.85;;;10.18;;
73599;SDS011;61877;48.246;9.220;2023-01-19T06:58:05;22.47;;;11.27;;
73599;SDS011;61877;48.246;9.220;2023-01-19T07:00:33;20.42;;;11.32;;
73599;SDS011;61877;48.246;9.220;2023-01-19T07:02:59;22.85;;;10.15;;
73599;SDS011;61877;48.246;9.220;2023-01-19T07:05:25;21.70;;;10.63;;
73599;SDS011;61877;48.246;9.220;2023-01-19T07:07:52;17.23;;;9.47;;
73599;SDS011;61877;48.246;9.220;2023-01-19T07:10:23;22.17;;;11.00;;
73599;SDS011;61877;48.246;9.220;2023-01-19T07:12:49;25.17;;;11.48;;
73599;SDS011;61877;48.246;9.220;2023-01-19T07:15:16;24.38;;;12.07;;
73599;SDS011;61877;48.246;9.220;2023-01-19T07:17:49;18.47;;;10.40;;
73599;SDS011;61877;48.246;9.220;2023-01-19T07:20:15;20.80;;;9.98;;
73599;SDS011;61877;48.246;9.220;2023-01-19T07:22:42;16.27;;;9.35;;
73599;SDS011;61877;48.246;9.220;2023-01-19T07:25:10;18.52;;;9.32;;
73599;SDS011;61877;48.246;9.220;2023-01-19T07:27:36;17.60;;;9.55;;
73599;SDS011;61877;48.246;9.220;2023-01-19T07:30:01;17.73;;;10.33;;
73599;SDS011;61877;48.246;9.220;2023-01-19T07:32:28;20.17;;;10.68;;
73599;SDS011;61877;48.246;9.220;2023-01-19T07:34:59;20.77;;;10.43;;
73599;SDS011;61877;48.246;9.220;2023-01-19T07:37:24;17.48;;;9.93;;
73599;SDS011;61877;48.246;9.220;2023-01-19T07:39:50;22.47;;;10.33;;
73599;SDS011;61877;48.246;9.220;2023-01-19T07:42:15;21.13;;;10.52;;
73599;SDS011;61877;48.246;9.220;2023-01-19T07:44:41;22.77;;;10.90;;
73599;SDS011;61877;48.246;9.220;2023-01-19T07:47:06;21.90;;;11.30;;
73599;SDS011;61877;48.246;9.220;2023-01-19T08:33:56;24.77;;;11.00;;
73599;SDS011;61877;48.246;9.220;2023-01-19T08:36:31;24.63;;;11.40;;
73599;SDS011;61877;48.246;9.220;2023-01-19T08:39:08;25.25;;;12.00;;
73599;SDS011;61877;48.246;9.220;2023-01-19T08:42:00;28.33;;;12.38;;
73599;SDS011;61877;48.246;9.220;2023-01-19T08:44:28;24.27;;;11.30;;
73599;SDS011;61877;48.246;9.220;2023-01-19T08:46:57;22.67;;;11.93;;
73599;SDS011;61877;48.246;9.220;2023-01-19T08:49:30;26.17;;;13.18;;
73599;SDS011;61877;48.246;9.220;2023-01-19T08:51:59;29.48;;;14.23;;
73599;SDS011;61877;48.246;9.220;2023-01-19T08:54:26;29.48;;;13.50;;
73599;SDS011;61877;48.246;9.220;2023-01-19T08:56:52;27.87;;;14.13;;
73599;SDS011;61877;48.246;9.220;2023-01-19T08:59:20;29.58;;;15.23;;
73599;SDS011;61877;48.246;9.220;2023-01-19T09:01:49;32.22;;;15.05;;
73599;SDS011;61877;48.246;9.220;2023-01-19T09:04:19;26.48;;;13.45;;
73599;SDS011;61877;48.246;9.220;2023-01-19T09:06:49;29.80;;;13.30;;
73599;SDS011;61877;48.246;9.220;2023-01-19T09:09:25;30.25;;;13.27;;
73599;SDS011;61877;48.246;9.220;2023-01-19T09:11:57;22.73;;;11.52;;
73599;SDS011;61877;48.246;9.220;2023-01-19T09:14:27;23.40;;;11.73;;
73599;SDS011;61877;48.246;9.220;2023-01-19T09:16:54;22.65;;;11.02;;
73599;SDS011;61877;48.246;9.220;2023-01-19T09:19:22;27.53;;;12.83;;
73599;SDS011;61877;48.246;9.220;2023-01-19T09:21:56;32.10;;;14.48;;
73599;SDS011;61877;48.246;9.220;2023-01-19T09:24:38;25.55;;;12.65;;
73599;SDS011;61877;48.246;9.220;2023-01-19T09:27:10;25.08;;;12.27;;
73599;SDS011;61877;48.246;9.220;2023-01-19T09:29:43;26.95;;;12.45;;
73599;SDS011;61877;48.246;9.220;2023-01-19T09:32:10;24.77;;;11.90;;
73599;SDS011;61877;48.246;9.220;2023-01-19T09:34:57;25.00;;;11.43;;
73599;SDS011;61877;48.246;9.220;2023-01-19T09:38:02;28.80;;;12.18;;
73599;SDS011;61877;48.246;9.220;2023-01-19T09:43:31;27.58;;;12.60;;
73599;SDS011;61877;48.246;9.220;2023-01-19T09:52:07;21.20;;;9.82;;
73599;SDS011;61877;48.246;9.220;2023-01-19T09:54:40;18.15;;;9.00;;
73599;SDS011;61877;48.246;9.220;2023-01-19T09:57:51;17.83;;;8.95;;
73599;SDS011;61877;48.246;9.220;2023-01-19T10:03:39;14.48;;;7.05;;
73599;SDS011;61877;48.246;9.220;2023-01-19T10:06:06;13.70;;;6.47;;
73599;SDS011;61877;48.246;9.220;2023-01-19T10:08:36;12.60;;;6.10;;
73599;SDS011;61877;48.246;9.220;2023-01-19T10:11:14;12.48;;;6.10;;
73599;SDS011;61877;48.246;9.220;2023-01-19T10:13:50;14.63;;;6.60;;
73599;SDS011;61877;48.246;9.220;2023-01-19T10:16:20;14.10;;;6.13;;
73599;SDS011;61877;48.246;9.220;2023-01-19T10:19:19;14.77;;;6.57;;
73599;SDS011;61877;48.246;9.220;2023-01-19T10:21:48;14.80;;;6.55;;
73599;SDS011;61877;48.246;9.220;2023-01-19T10:24:16;15.57;;;7.07;;
73599;SDS011;61877;48.246;9.220;2023-01-19T10:26:49;14.83;;;6.53;;
73599;SDS011;61877;48.246;9.220;2023-01-19T10:29:18;12.55;;;5.65;;
73599;SDS011;61877;48.246;9.220;2023-01-19T10:31:52;11.15;;;5.50;;
73599;SDS011;61877;48.246;9.220;2023-01-19T10:34:25;11.98;;;5.40;;
73599;SDS011;61877;48.246;9.220;2023-01-19T10:36:52;13.23;;;5.57;;
73599;SDS011;61877;48.246;9.220;2023-01-19T10:39:22;11.77;;;5.68;;
73599;SDS011;61877;48.246;9.220;2023-01-19T10:41:50;16.37;;;8.07;;
73599;SDS011;61877;48.246;9.220;2023-01-19T10:44:22;13.85;;;6.40;;
73599;SDS011;61877;48.246;9.220;2023-01-19T10:46:48;13.50;;;6.55;;
73599;SDS011;61877;48.246;9.220;2023-01-19T10:49:22;12.77;;;6.05;;
73599;SDS011;61877;48.246;9.220;2023-01-19T10:51:51;13.57;;;6.80;;
73599;SDS011;61877;48.246;9.220;2023-01-19T10:54:17;14.07;;;6.50;;
73599;SDS011;61877;48.246;9.220;2023-01-19T10:56:50;14.07;;;6.90;;
73599;SDS011;61877;48.246;9.220;2023-01-19T10:59:28;13.10;;;6.88;;
73599;SDS011;61877;48.246;9.220;2023-01-19T11:02:10;14.10;;;6.80;;
73599;SDS011;61877;48.246;9.220;2023-01-19T11:04:41;13.50;;;6.70;;
73599;SDS011;61877;48.246;9.220;2023-01-19T11:07:14;14.07;;;6.40;;
73599;SDS011;61877;48.246;9.220;2023-01-19T11:09:42;13.50;;;6.90;;
73599;SDS011;61877;48.246;9.220;2023-01-19T11:12:15;14.03;;;6.67;;
73599;SDS011;61877;48.246;9.220;2023-01-19T11:14:43;13.77;;;6.70;;
73599;SDS011;61877;48.246;9.220;2023-01-19T11:17:15;15.13;;;7.03;;
73599;SDS011;61877;48.246;9.220;2023-01-19T11:19:50;12.57;;;6.35;;
73599;SDS011;61877;48.246;9.220;2023-01-19T11:22:23;12.65;;;6.40;;
73599;SDS011;61877;48.246;9.220;2023-01-19T11:24:51;12.45;;;6.18;;
73599;SDS011;61877;48.246;9.220;2023-01-19T11:27:18;13.43;;;6.40;;
73599;SDS011;61877;48.246;9.220;2023-01-19T11:29:46;12.60;;;5.85;;
73599;SDS011;61877;48.246;9.220;2023-01-19T11:32:18;12.75;;;6.50;;
73599;SDS011;61877;48.246;9.220;2023-01-19T11:34:44;13.30;;;6.78;;
73599;SDS011;61877;48.246;9.220;2023-01-19T11:37:24;11.83;;;6.07;;
73599;SDS011;61877;48.246;9.220;2023-01-19T11:39:52;10.68;;;5.38;;
73599;SDS011;61877;48.246;9.220;2023-01-19T11:42:20;11.33;;;5.60;;
73599;SDS011;61877;48.246;9.220;2023-01-19T11:44:47;11.95;;;5.75;;
73599;SDS011;61877;48.246;9.220;2023-01-19T11:47:22;11.20;;;5.50;;
73599;SDS011;61877;48.246;9.220;2023-01-19T11:49:51;11.50;;;5.55;;
73599;SDS011;61877;48.246;9.220;2023-01-19T11:52:24;10.63;;;5.13;;
73599;SDS011;61877;48.246;9.220;2023-01-19T11:54:53;11.60;;;5.83;;
73599;SDS011;61877;48.246;9.220;2023-01-19T11:57:25;11.75;;;5.97;;
73599;SDS011;61877;48.246;9.220;2023-01-19T11:59:51;11.93;;;5.72;;
73599;SDS011;61877;48.246;9.220;2023-01-19T12:02:20;12.00;;;5.90;;
73599;SDS011;61877;48.246;9.220;2023-01-19T12:04:50;11.93;;;5.82;;
73599;SDS011;61877;48.246;9.220;2023-01-19T12:07:22;11.10;;;5.50;;
73599;SDS011;61877;48.246;9.220;2023-01-19T12:09:51;11.95;;;5.53;;
73599;SDS011;61877;48.246;9.220;2023-01-19T12:12:23;12.48;;;5.82;;
73599;SDS011;61877;48.246;9.220;2023-01-19T12:14:55;10.75;;;5.55;;
73599;SDS011;61877;48.246;9.220;2023-01-19T12:17:24;11.63;;;5.35;;
73599;SDS011;61877;48.246;9.220;2023-01-19T12:19:53;11.40;;;5.50;;
73599;SDS011;61877;48.246;9.220;2023-01-19T12:22:24;11.70;;;5.35;;
73599;SDS011;61877;48.246;9.220;2023-01-19T12:24:53;11.98;;;6.18;;
73599;SDS011;61877;48.246;9.220;2023-01-19T12:27:22;11.80;;;5.63;;
73599;SDS011;61877;48.246;9.220;2023-01-19T12:30:03;12.73;;;6.00;;
73599;SDS011;61877;48.246;9.220;2023-01-19T12:32:34;12.10;;;6.00;;
73599;SDS011;61877;48.246;9.220;2023-01-19T12:35:00;14.77;;;6.53;;
73599;SDS011;61877;48.246;9.220;2023-01-19T12:37:33;14.83;;;6.33;;
73599;SDS011;61877;48.246;9.220;2023-01-19T12:40:03;12.52;;;6.00;;
73599;SDS011;61877;48.246;9.220;2023-01-19T12:42:44;11.38;;;6.15;;
73599;SDS011;61877;48.246;9.220;2023-01-19T12:45:12;13.17;;;6.23;;
73599;SDS011;61877;48.246;9.220;2023-01-19T12:47:44;12.93;;;6.50;;
73599;SDS011;61877;48.246;9.220;2023-01-19T12:50:15;11.57;;;5.78;;
73599;SDS011;61877;48.246;9.220;2023-01-19T12:52:46;12.95;;;6.63;;
73599;SDS011;61877;48.246;9.220;2023-01-19T12:55:15;12.88;;;6.07;;
73599;SDS011;61877;48.246;9.220;2023-01-19T12:57:50;11.67;;;5.57;;
73599;SDS011;61877;48.246;9.220;2023-01-19T13:00:28;11.30;;;6.28;;
73599;SDS011;61877;48.246;9.220;2023-01-19T13:03:00;12.23;;;6.00;;
73599;SDS011;61877;48.246;9.220;2023-01-19T13:08:16;11.38;;;5.70;;
73599;SDS011;61877;48.246;9.220;2023-01-19T13:10:51;12.07;;;6.43;;
73599;SDS011;61877;48.246;9.220;2023-01-19T13:14:28;11.77;;;5.70;;
73599;SDS011;61877;48.246;9.220;2023-01-19T13:16:57;11.60;;;5.95;;
73599;SDS011;61877;48.246;9.220;2023-01-19T13:19:36;12.18;;;6.03;;
73599;SDS011;61877;48.246;9.220;2023-01-19T13:25:27;13.73;;;6.90;;
73599;SDS011;61877;48.246;9.220;2023-01-19T13:27:55;12.68;;;7.00;;
73599;SDS011;61877;48.246;9.220;2023-01-19T13:30:23;13.98;;;7.38;;
73599;SDS011;61877;48.246;9.220;2023-01-19T13:32:52;13.77;;;6.72;;
73599;SDS011;61877;48.246;9.220;2023-01-19T13:35:19;12.85;;;6.43;;
73599;SDS011;61877;48.246;9.220;2023-01-19T13:37:45;12.83;;;6.77;;
73599;SDS011;61877;48.246;9.220;2023-01-19T13:40:16;12.85;;;6.50;;
73599;SDS011;61877;48.246;9.220;2023-01-19T13:42:44;13.60;;;6.68;;
73599;SDS011;61877;48.246;9.220;2023-01-19T13:45:15;12.82;;;6.60;;
73599;SDS011;61877;48.246;9.220;2023-01-19T13:47:51;13.48;;;6.80;;
73599;SDS011;61877;48.246;9.220;2023-01-19T13:50:21;14.47;;;6.47;;
73599;SDS011;61877;48.246;9.220;2023-01-19T13:52:48;13.65;;;7.18;;
73599;SDS011;61877;48.246;9.220;2023-01-19T13:55:14;13.93;;;6.70;;
73599;SDS011;61877;48.246;9.220;2023-01-19T13:57:42;12.73;;;6.80;;
73599;SDS011;61877;48.246;9.220;2023-01-19T14:00:16;13.48;;;7.10;;
73599;SDS011;61877;48.246;9.220;2023-01-19T14:02:54;15.43;;;6.47;;
73599;SDS011;61877;48.246;9.220;2023-01-19T14:05:22;14.60;;;7.00;;
73599;SDS011;61877;48.246;9.220;2023-01-19T14:07:58;16.92;;;7.70;;
73599;SDS011;61877;48.246;9.220;2023-01-19T14:10:24;14.75;;;6.57;;
73599;SDS011;61877;48.246;9.220;2023-01-19T14:12:56;13.97;;;6.63;;
73599;SDS011;61877;48.246;9.220;2023-01-19T14:15:23;13.85;;;7.50;;
73599;SDS011;61877;48.246;9.220;2023-01-19T14:20:34;14.60;;;7.55;;
73599;SDS011;61877;48.246;9.220;2023-01-19T14:23:00;15.50;;;6.88;;
73599;SDS011;61877;48.246;9.220;2023-01-19T14:25:26;14.17;;;7.40;;
73599;SDS011;61877;48.246;9.220;2023-01-19T14:30:52;14.73;;;7.88;;
73599;SDS011;61877;48.246;9.220;2023-01-19T14:33:32;13.27;;;6.60;;
73599;SDS011;61877;48.246;9.220;2023-01-19T14:36:21;14.82;;;7.50;;
73599;SDS011;61877;48.246;9.220;2023-01-19T14:38:51;12.95;;;6.80;;
73599;SDS011;61877;48.246;9.220;2023-01-19T14:41:21;13.10;;;6.70;;
73599;SDS011;61877;48.246;9.220;2023-01-19T14:43:50;13.07;;;6.63;;
73599;SDS011;61877;48.246;9.220;2023-01-19T14:46:17;13.03;;;6.93;;
73599;SDS011;61877;48.246;9.220;2023-01-19T14:48:45;13.70;;;6.72;;
73599;SDS011;61877;48.246;9.220;2023-01-19T14:51:14;14.73;;;6.82;;
73599;SDS011;61877;48.246;9.220;2023-01-19T14:53:45;16.10;;;8.25;;
73599;SDS011;61877;48.246;9.220;2023-01-19T14:56:22;16.55;;;9.02;;
73599;SDS011;61877;48.246;9.220;2023-01-19T14:58:49;17.10;;;8.60;;
73599;SDS011;61877;48.246;9.220;2023-01-19T15:01:14;16.52;;;7.78;;
73599;SDS011;61877;48.246;9.220;2023-01-19T15:03:39;17.13;;;8.30;;
73599;SDS011;61877;48.246;9.220;2023-01-19T15:06:09;15.67;;;8.53;;
73599;SDS011;61877;48.246;9.220;2023-01-19T15:08:37;14.48;;;7.60;;
73599;SDS011;61877;48.246;9.220;2023-01-19T15:11:05;16.70;;;7.72;;
73599;SDS011;61877;48.246;9.220;2023-01-19T15:13:34;18.15;;;7.93;;
73599;SDS011;61877;48.246;9.220;2023-01-19T15:16:01;16.23;;;8.17;;
73599;SDS011;61877;48.246;9.220;2023-01-19T15:18:26;15.07;;;7.85;;
73599;SDS011;61877;48.246;9.220;2023-01-19T15:20:52;15.40;;;7.57;;
73599;SDS011;61877;48.246;9.220;2023-01-19T15:23:19;13.60;;;6.90;;
73599;SDS011;61877;48.246;9.220;2023-01-19T15:25:44;12.73;;;6.90;;
73599;SDS011;61877;48.246;9.220;2023-01-19T15:28:10;16.17;;;7.65;;
73599;SDS011;61877;48.246;9.220;2023-01-19T15:30:36;16.10;;;7.93;;
73599;SDS011;61877;48.246;9.220;2023-01-19T15:33:02;13.88;;;7.50;;
73599;SDS011;61877;48.246;9.220;2023-01-19T15:35:28;16.20;;;7.57;;
73599;SDS011;61877;48.246;9.220;2023-01-19T15:37:53;15.67;;;7.93;;
73599;SDS011;61877;48.246;9.220;2023-01-19T15:40:20;16.63;;;7.97;;
73599;SDS011;61877;48.246;9.220;2023-01-19T15:42:45;16.47;;;8.00;;
73599;SDS011;61877;48.246;9.220;2023-01-19T15:45:19;15.50;;;7.88;;
73599;SDS011;61877;48.246;9.220;2023-01-19T15:47:56;19.13;;;9.43;;
73599;SDS011;61877;48.246;9.220;2023-01-19T15:50:21;25.02;;;12.18;;
73599;SDS011;61877;48.246;9.220;2023-01-19T15:52:48;27.97;;;12.27;;
73599;SDS011;61877;48.246;9.220;2023-01-19T15:55:14;23.92;;;12.18;;
73599;SDS011;61877;48.246;9.220;2023-01-19T15:57:40;18.57;;;10.00;;
73599;SDS011;61877;48.246;9.220;2023-01-19T16:00:06;16.52;;;9.30;;
73599;SDS011;61877;48.246;9.220;2023-01-19T16:02:33;18.03;;;8.63;;
73599;SDS011;61877;48.246;9.220;2023-01-19T16:04:59;17.13;;;9.27;;
73599;SDS011;61877;48.246;9.220;2023-01-19T16:07:25;19.40;;;9.52;;
73599;SDS011;61877;48.246;9.220;2023-01-19T16:09:50;15.57;;;8.30;;
73599;SDS011;61877;48.246;9.220;2023-01-19T16:12:16;14.57;;;7.57;;
73599;SDS011;61877;48.246;9.220;2023-01-19T16:14:42;16.50;;;8.97;;
73599;SDS011;61877;48.246;9.220;2023-01-19T16:17:08;18.48;;;9.10;;
73599;SDS011;61877;48.246;9.220;2023-01-19T16:19:33;21.17;;;9.10;;
73599;SDS011;61877;48.246;9.220;2023-01-19T16:21:59;18.35;;;9.05;;
73599;SDS011;61877;48.246;9.220;2023-01-19T16:24:24;15.60;;;8.90;;
73599;SDS011;61877;48.246;9.220;2023-01-19T16:26:50;15.90;;;8.57;;
73599;SDS011;61877;48.246;9.220;2023-01-19T16:29:15;18.87;;;9.40;;